Time;durP1;ratioP1;P1;durP2;ratioP2;P2;SDS_P1;SDS_P2;PMS_P1;PMS_P2;Temp;Humidity;BMP_temperature;BMP_pressure;BME280_temperature;BME280_humidity;BME280_pressure;Samples;Min_cycle;Max_cycle;Signal;HPM_P1;HPM_P2
2023/08/19 00:07:25;;;;;;;3.28;1.30;;;;;;;;;;21034907;28;20243;-69
2023/08/19 00:17:26;;;;;;;2.53;0.93;;;;;;;;;;21101394;28;20592;-69
2023/08/19 00:27:28;;;;;;;0.73;0.60;;;;;;;;;;21100719;28;20893;-69
2023/08/19 00:37:31;;;;;;;1.00;0.63;;;;;;;;;;21100214;28;20214;-69
2023/08/19 00:47:33;;;;;;;0.80;0.60;;;;;;;;;;21096010;28;20219;-69
2023/08/19 00:57:36;;;;;;;1.50;0.70;;;27.10;99.90;;;;;;21105012;28;20222;-69
2023/08/19 01:07:46;;;;;;;2.55;0.65;;;;;;;;;;21116114;28;20274;-69
2023/08/19 01:17:49;;;;;;;2.72;0.80;;;;;;;;;;21131619;28;20231;-69
2023/08/19 01:27:51;;;;;;;1.77;0.75;;;;;;;;;;21075058;28;20277;-70
2023/08/19 01:37:53;;;;;;;2.35;0.80;;;;;;;;;;21094671;28;20229;-70
2023/08/19 01:47:55;;;;;;;4.32;0.95;;;;;;;;;;21089462;28;20729;-69
2023/08/19 01:57:57;;;;;;;2.55;0.65;;;;;;;;;;21126250;28;20227;-69
2023/08/19 02:07:59;;;;;;;2.60;0.70;;;;;;;;;;21109598;28;20226;-69
2023/08/19 02:18:01;;;;;;;1.00;0.75;;;;;;;;;;21126732;28;20234;-69
2023/08/19 02:28:03;;;;;;;2.70;0.88;;;;;;;;;;21125623;28;20251;-69
2023/08/19 02:38:04;;;;;;;1.40;0.75;;;;;;;;;;21108875;28;20242;-69
2023/08/19 02:48:07;;;;;;;2.92;0.70;;;;;;;;;;21099355;28;20218;-69
2023/08/19 02:58:09;;;;;;;2.28;1.00;;;;;;;;;;21069009;28;20212;-69
2023/08/19 03:08:11;;;;;;;1.48;0.93;;;;;;;;;;21072460;28;20225;-69
2023/08/19 03:18:14;;;;;;;1.50;0.80;;;;;;;;;;21105022;28;20298;-69
2023/08/19 03:28:17;;;;;;;1.20;0.80;;;;;;;;;;21059034;23;20270;-75
2023/08/19 03:38:19;;;;;;;2.20;1.02;;;;;;;;;;20956147;28;20222;-75
2023/08/19 03:48:20;;;;;;;1.50;0.90;;;;;;;;;;20993264;28;20299;-76
2023/08/19 03:58:22;;;;;;;3.38;0.90;;;;;;;;;;21047862;28;20227;-76
2023/08/19 04:08:24;;;;;;;1.25;0.85;;;;;;;;;;21043039;28;20202;-76
2023/08/19 04:18:25;;;;;;;1.88;0.95;;;;;;;;;;21067389;28;20695;-75
2023/08/19 04:28:27;;;;;;;2.80;1.13;;;;;;;;;;21048573;28;20641;-76
2023/08/19 04:38:30;;;;;;;1.60;0.90;;;;;;;;;;21048820;28;20608;-76
2023/08/19 04:48:33;;;;;;;1.65;1.05;;;;;;;;;;21013693;28;20267;-75
2023/08/19 04:58:35;;;;;;;2.90;1.27;;;;;;;;;;20968666;28;20216;-75
2023/08/19 05:08:37;;;;;;;2.25;1.45;;;;;;;;;;20998512;28;20215;-76
2023/08/19 05:18:39;;;;;;;3.17;1.38;;;;;;;;;;21043449;28;20227;-74
2023/08/19 05:28:40;;;;;;;1.83;1.13;;;;;;;;;;21044509;28;20226;-75
2023/08/19 05:38:42;;;;;;;2.78;1.00;;;;;;;;;;21007735;28;20220;-74
2023/08/19 05:48:44;;;;;;;1.60;1.00;;;;;;;;;;21060609;28;20242;-75
2023/08/19 05:58:46;;;;;;;1.67;0.68;;;;;;;;;;21033239;28;20685;-75
2023/08/19 06:08:48;;;;;;;1.52;0.80;;;;;;;;;;21048247;28;20690;-74
2023/08/19 06:18:50;;;;;;;2.25;1.25;;;;;;;;;;21066308;28;20230;-75
2023/08/19 06:28:52;;;;;;;1.52;0.77;;;;;;;;;;21054747;28;20226;-77
2023/08/19 06:39:00;;;;;;;3.38;1.05;;;;;;;;;;20988815;28;20687;-74
2023/08/19 06:49:02;;;;;;;1.27;0.70;;;;;;;;;;21046910;28;20208;-73
2023/08/19 06:59:15;;;;;;;1.65;0.77;;;;;;;;;;21052027;28;20284;-73
2023/08/19 07:09:17;;;;;;;1.38;0.88;;;;;;;;;;21057579;28;20219;-75
2023/08/19 07:19:23;;;;;;;1.63;1.10;;;;;;;;;;21045749;28;20225;-75
2023/08/19 07:29:24;;;;;;;2.28;1.23;;;;;;;;;;21018500;28;20224;-76
2023/08/19 07:39:26;;;;;;;1.42;0.95;;;;;;;;;;21001802;28;20244;-76
2023/08/19 07:49:28;;;;;;;3.17;1.23;;;;;;;;;;21034481;28;20228;-76
2023/08/19 07:59:30;;;;;;;2.88;1.35;;;;;;;;;;21051489;28;20236;-76
2023/08/19 08:09:32;;;;;;;1.48;1.15;;;;;;;;;;21021937;28;20256;-77
2023/08/19 08:19:34;;;;;;;1.70;1.00;;;;;;;;;;21061442;28;20215;-77
2023/08/19 08:29:36;;;;;;;1.95;1.30;;;;;;;;;;20994476;28;20231;-77
2023/08/19 08:39:38;;;;;;;2.72;1.30;;;;;;;;;;21023323;28;20223;-76
2023/08/19 08:49:39;;;;;;;2.25;1.48;;;;;;;;;;21086343;28;20620;-77
2023/08/19 08:59:41;;;;;;;4.00;1.50;;;;;;;;;;21067472;28;20657;-77
2023/08/19 09:09:46;;;;;;;2.45;1.48;;;28.10;99.90;;;;;;21047975;28;20242;-76
2023/08/19 09:19:49;;;;;;;5.50;1.55;;;;;;;;;;21048884;28;20218;-78
2023/08/19 09:29:50;;;;;;;4.18;1.52;;;;;;;;;;21127943;22;20230;-73
2023/08/19 09:39:53;;;;;;;2.28;1.48;;;;;;;;;;21100220;28;20663;-73
2023/08/19 09:49:57;;;;;;;1.92;1.48;;;28.80;99.90;;;;;;21085004;28;20239;-73
2023/08/19 09:59:59;;;;;;;2.10;1.20;;;;;;;;;;21097489;28;20221;-73
2023/08/19 10:10:04;;;;;;;2.78;1.50;;;28.70;99.90;;;;;;21143489;28;20620;-74
2023/08/19 10:20:11;;;;;;;4.13;1.45;;;;;;;;;;21118724;27;20238;-74
2023/08/19 10:30:23;;;;;;;3.08;1.42;;;;;;;;;;21117448;28;20286;-74
2023/08/19 10:40:26;;;;;;;1.90;1.17;;;;;;;;;;21126134;27;20361;-75
2023/08/19 10:50:34;;;;;;;2.17;1.17;;;29.40;99.90;;;;;;21125944;28;20276;-74
2023/08/19 11:00:37;;;;;;;3.42;1.23;;;;;;;;;;21100970;27;20547;-73
2023/08/19 11:10:39;;;;;;;3.42;1.40;;;;;;;;;;21080901;28;20219;-72
2023/08/19 11:20:40;;;;;;;2.85;1.27;;;;;;;;;;21106927;28;20233;-74
2023/08/19 11:30:42;;;;;;;4.82;1.20;;;;;;;;;;21062059;28;20693;-74
2023/08/19 11:40:44;;;;;;;2.40;1.17;;;;;;;;;;21068998;28;20272;-74
2023/08/19 11:50:50;;;;;;;5.63;1.20;;;;;;;;;;21090278;28;20244;-77
2023/08/19 12:00:55;;;;;;;2.72;1.08;;;;;;;;;;21104234;28;20219;-75
2023/08/19 12:10:58;;;;;;;1.67;1.10;;;30.10;99.90;;;;;;21056211;28;20260;-77
2023/08/19 12:21:03;;;;;;;2.80;1.33;;;29.90;99.90;;;;;;21109230;28;20268;-76
2023/08/19 12:31:04;;;;;;;3.15;1.50;;;;;;;;;;21103199;28;20223;-76
2023/08/19 12:41:06;;;;;;;2.85;1.30;;;;;;;;;;21065336;28;20245;-75
2023/08/19 12:51:08;;;;;;;2.65;1.38;;;;;;;;;;21125158;28;20291;-75
2023/08/19 13:01:11;;;;;;;5.82;1.40;;;;;;;;;;21107334;28;20283;-75
2023/08/19 13:11:13;;;;;;;3.38;1.10;;;;;;;;;;21106619;28;20216;-75
2023/08/19 13:21:15;;;;;;;2.95;0.90;;;;;;;;;;21100774;28;20261;-75
2023/08/19 13:31:18;;;;;;;1.70;1.10;;;;;;;;;;21119688;28;20642;-75
2023/08/19 13:41:19;;;;;;;1.35;1.00;;;;;;;;;;21106950;27;20228;-74
2023/08/19 13:51:21;;;;;;;2.05;1.00;;;;;;;;;;21094748;28;20741;-75
2023/08/19 14:01:23;;;;;;;3.63;1.60;;;;;;;;;;21084808;28;20262;-75
2023/08/19 14:11:26;;;;;;;2.95;1.17;;;;;;;;;;21129868;28;20224;-75
2023/08/19 14:21:27;;;;;;;2.35;1.33;;;;;;;;;;21037202;28;20236;-75
2023/08/19 14:31:30;;;;;;;2.15;1.20;;;31.50;99.90;;;;;;21100100;28;20219;-74
2023/08/19 14:41:32;;;;;;;2.55;1.30;;;;;;;;;;21137608;27;20288;-75
2023/08/19 14:51:34;;;;;;;1.95;1.08;;;;;;;;;;21084935;28;20285;-75
2023/08/19 15:01:36;;;;;;;2.13;1.15;;;;;;;;;;21059238;28;20254;-75
2023/08/19 15:11:41;;;;;;;5.28;1.20;;;;;;;;;;21076130;28;20215;-75
2023/08/19 15:21:43;;;;;;;2.47;1.10;;;;;;;;;;21093857;28;20258;-77
2023/08/19 15:31:45;;;;;;;1.50;1.10;;;;;;;;;;21051895;28;20278;-75
2023/08/19 15:41:47;;;;;;;3.50;1.30;;;;;;;;;;21019455;28;20228;-76
2023/08/19 15:51:49;;;;;;;1.70;1.23;;;;;;;;;;21132649;22;20281;-76
2023/08/19 16:01:50;;;;;;;2.13;1.20;;;;;;;;;;21123871;27;20235;-76
2023/08/19 16:11:52;;;;;;;3.60;1.10;;;;;;;;;;21131766;27;20261;-77
2023/08/19 16:21:55;;;;;;;4.10;1.30;;;;;;;;;;21113100;28;20236;-75
2023/08/19 16:31:58;;;;;;;3.08;1.20;;;;;;;;;;21106624;28;20207;-75
2023/08/19 16:42:00;;;;;;;1.85;1.17;;;;;;;;;;21079540;28;20224;-75
2023/08/19 16:52:02;;;;;;;2.63;1.23;;;;;;;;;;21128687;28;20220;-78
2023/08/19 17:02:04;;;;;;;5.10;2.90;;;;;;;;;;21133333;28;20228;-78
2023/08/19 17:12:05;;;;;;;2.35;1.50;;;;;;;;;;21134178;28;20224;-77
2023/08/19 17:22:09;;;;;;;3.17;1.58;;;30.60;99.90;;;;;;21096289;28;20220;-76
2023/08/19 17:32:11;;;;;;;1.80;1.40;;;;;;;;;;21085167;28;20217;-76
2023/08/19 17:42:13;;;;;;;3.67;1.35;;;;;;;;;;21088410;28;20216;-76
2023/08/19 17:52:15;;;;;;;2.33;1.55;;;;;;;;;;21144724;27;20220;-76
2023/08/19 18:02:16;;;;;;;3.83;2.10;;;;;;;;;;21124704;27;20221;-76
2023/08/19 18:12:18;;;;;;;3.25;2.13;;;;;;;;;;21139548;27;20268;-76
2023/08/19 18:22:20;;;;;;;2.22;1.80;;;;;;;;;;21119531;27;20282;-76
2023/08/19 18:32:22;;;;;;;4.18;1.88;;;;;;;;;;21115410;28;20232;-76
2023/08/19 18:42:23;;;;;;;2.53;1.60;;;;;;;;;;21115741;27;20220;-75
2023/08/19 18:52:25;;;;;;;3.17;1.40;;;;;;;;;;21116638;28;20225;-76
2023/08/19 19:02:27;;;;;;;4.43;2.17;;;;;;;;;;21072610;28;20223;-76
2023/08/19 19:12:28;;;;;;;4.30;1.80;;;;;;;;;;21072546;28;20691;-76
2023/08/19 19:22:30;;;;;;;2.92;1.45;;;;;;;;;;21052790;28;20220;-77
2023/08/19 19:32:32;;;;;;;3.28;1.73;;;;;;;;;;21052769;28;20215;-76
2023/08/19 19:42:34;;;;;;;2.95;1.88;;;;;;;;;;21053319;27;20283;-76
2023/08/19 19:52:38;;;;;;;1.80;1.52;;;;;;;;;;21142733;27;20355;-76
2023/08/19 20:02:40;;;;;;;2.17;1.70;;;;;;;;;;21085858;27;20247;-76
2023/08/19 20:12:42;;;;;;;2.00;1.45;;;;;;;;;;21076538;28;20227;-76
2023/08/19 20:22:44;;;;;;;2.22;1.38;;;;;;;;;;21151350;28;20284;-76
2023/08/19 20:32:46;;;;;;;2.42;1.60;;;;;;;;;;21135786;28;20774;-76
2023/08/19 20:42:48;;;;;;;3.47;1.55;;;;;;;;;;21161106;28;20272;-76
2023/08/19 20:52:50;;;;;;;2.72;1.60;;;29.10;99.90;;;;;;21119777;28;20270;-76
2023/08/19 21:02:52;;;;;;;2.33;1.30;;;;;;;;;;21103248;28;20227;-76
2023/08/19 21:12:54;;;;;;;3.08;1.45;;;;;;;;;;21137524;27;20261;-76
2023/08/19 21:22:55;;;;;;;3.75;1.45;;;;;;;;;;21062477;28;20258;-76
2023/08/19 21:32:57;;;;;;;2.20;1.20;;;;;;;;;;21068691;27;20286;-76
2023/08/19 21:42:59;;;;;;;3.42;1.48;;;;;;;;;;21099714;28;21076;-76
2023/08/19 21:53:01;;;;;;;3.40;1.20;;;;;;;;;;21090558;22;20702;-73
2023/08/19 22:03:03;;;;;;;1.80;1.20;;;;;;;;;;20846747;28;20691;-75
2023/08/19 22:13:04;;;;;;;3.22;1.30;;;;;;;;;;20786591;28;20283;-74
2023/08/19 22:23:06;;;;;;;1.60;1.20;;;;;;;;;;20806060;28;20462;-74
2023/08/19 22:33:08;;;;;;;2.03;1.63;;;;;;;;;;20760054;28;20296;-76
2023/08/19 22:43:10;;;;;;;2.15;1.50;;;;;;;;;;20754784;28;20304;-74
2023/08/19 22:53:12;;;;;;;3.03;1.30;;;;;;;;;;20777955;28;20225;-74
2023/08/19 23:03:13;;;;;;;2.05;1.27;;;;;;;;;;20804530;28;20678;-74
2023/08/19 23:13:15;;;;;;;2.22;1.35;;;;;;;;;;20796345;28;20292;-74
2023/08/19 23:23:17;;;;;;;3.80;1.60;;;;;;;;;;20792730;28;20547;-74
2023/08/19 23:33:19;;;;;;;4.57;1.70;;;;;;;;;;20780713;28;20229;-75
2023/08/19 23:43:21;;;;;;;2.25;1.65;;;;;;;;;;20789124;28;20220;-75
2023/08/19 23:53:24;;;;;;;1.70;1.25;;;27.80;99.90;;;;;;20802053;28;20229;-73
